sensor_id;sensor_type;location;lat;lon;timestamp;P1;durP1;ratioP1;P2;durP2;ratioP2
73421;SDS011;61637;47.760;-122.022;2024-01-30T00:00:01;6.3;;;1.3;;
73421;SDS011;61637;47.760;-122.022;2024-01-30T00:02:01;5.3;;;1.1;;
73421;SDS011;61637;47.760;-122.022;2024-01-30T00:04:01;4.3;;;1.1;;
73421;SDS011;61637;47.760;-122.022;2024-01-30T00:06:03;3.9;;;1.2;;
73421;SDS011;61637;47.760;-122.022;2024-01-30T00:08:01;3.2;;;1.2;;
73421;SDS011;61637;47.760;-122.022;2024-01-30T00:10:01;4.7;;;1.3;;
73421;SDS011;61637;47.760;-122.022;2024-01-30T00:12:01;4.5;;;1.2;;
73421;SDS011;61637;47.760;-122.022;2024-01-30T00:14:01;3.3;;;1.2;;
73421;SDS011;61637;47.760;-122.022;2024-01-30T00:16:01;5.0;;;1.5;;
73421;SDS011;61637;47.760;-122.022;2024-01-30T00:18:01;5.0;;;1.4;;
73421;SDS011;61637;47.760;-122.022;2024-01-30T00:20:01;3.2;;;1.2;;
73421;SDS011;61637;47.760;-122.022;2024-01-30T00:22:01;4.2;;;1.3;;
73421;SDS011;61637;47.760;-122.022;2024-01-30T00:24:01;3.6;;;1.2;;
73421;SDS011;61637;47.760;-122.022;2024-01-30T00:26:01;4.4;;;1.2;;
73421;SDS011;61637;47.760;-122.022;2024-01-30T00:28:01;4.6;;;1.3;;
73421;SDS011;61637;47.760;-122.022;2024-01-30T00:30:01;3.5;;;1.2;;
73421;SDS011;61637;47.760;-122.022;2024-01-30T00:32:01;2.8;;;1.1;;
73421;SDS011;61637;47.760;-122.022;2024-01-30T00:34:01;4.9;;;1.0;;
73421;SDS011;61637;47.760;-122.022;2024-01-30T00:36:01;3.5;;;1.0;;
73421;SDS011;61637;47.760;-122.022;2024-01-30T00:38:01;3.0;;;1.2;;
73421;SDS011;61637;47.760;-122.022;2024-01-30T00:40:01;3.0;;;1.1;;
73421;SDS011;61637;47.760;-122.022;2024-01-30T00:42:01;3.6;;;1.0;;
73421;SDS011;61637;47.760;-122.022;2024-01-30T00:44:01;3.2;;;1.0;;
73421;SDS011;61637;47.760;-122.022;2024-01-30T00:46:01;3.1;;;1.1;;
73421;SDS011;61637;47.760;-122.022;2024-01-30T00:48:01;2.8;;;1.0;;
73421;SDS011;61637;47.760;-122.022;2024-01-30T00:50:01;2.9;;;0.9;;
73421;SDS011;61637;47.760;-122.022;2024-01-30T00:52:01;3.3;;;1.1;;
73421;SDS011;61637;47.760;-122.022;2024-01-30T00:54:01;3.5;;;1.1;;
73421;SDS011;61637;47.760;-122.022;2024-01-30T00:56:01;3.4;;;1.0;;
73421;SDS011;61637;47.760;-122.022;2024-01-30T00:58:01;2.9;;;1.0;;
73421;SDS011;61637;47.760;-122.022;2024-01-30T01:00:01;3.1;;;1.0;;
73421;SDS011;61637;47.760;-122.022;2024-01-30T01:02:01;5.8;;;1.1;;
73421;SDS011;61637;47.760;-122.022;2024-01-30T01:04:01;4.0;;;1.0;;
73421;SDS011;61637;47.760;-122.022;2024-01-30T01:06:01;3.0;;;0.9;;
73421;SDS011;61637;47.760;-122.022;2024-01-30T01:08:01;2.5;;;1.0;;
73421;SDS011;61637;47.760;-122.022;2024-01-30T01:10:01;4.1;;;1.0;;
73421;SDS011;61637;47.760;-122.022;2024-01-30T01:12:02;3.0;;;1.0;;
73421;SDS011;61637;47.760;-122.022;2024-01-30T01:14:01;3.5;;;1.0;;
73421;SDS011;61637;47.760;-122.022;2024-01-30T01:16:01;4.1;;;0.9;;
73421;SDS011;61637;47.760;-122.022;2024-01-30T01:18:01;4.4;;;1.0;;
73421;SDS011;61637;47.760;-122.022;2024-01-30T01:20:02;2.9;;;1.0;;
73421;SDS011;61637;47.760;-122.022;2024-01-30T01:22:01;5.1;;;1.1;;
73421;SDS011;61637;47.760;-122.022;2024-01-30T01:24:01;5.0;;;1.0;;
73421;SDS011;61637;47.760;-122.022;2024-01-30T01:26:01;4.8;;;1.1;;
73421;SDS011;61637;47.760;-122.022;2024-01-30T01:28:01;4.5;;;1.2;;
73421;SDS011;61637;47.760;-122.022;2024-01-30T01:30:01;5.1;;;1.1;;
73421;SDS011;61637;47.760;-122.022;2024-01-30T01:32:01;6.3;;;1.2;;
73421;SDS011;61637;47.760;-122.022;2024-01-30T01:34:01;4.5;;;1.5;;
73421;SDS011;61637;47.760;-122.022;2024-01-30T01:36:01;3.8;;;1.1;;
73421;SDS011;61637;47.760;-122.022;2024-01-30T01:38:01;4.2;;;1.0;;
73421;SDS011;61637;47.760;-122.022;2024-01-30T01:40:01;3.7;;;1.0;;
73421;SDS011;61637;47.760;-122.022;2024-01-30T01:42:01;3.3;;;1.0;;
73421;SDS011;61637;47.760;-122.022;2024-01-30T01:44:01;4.0;;;1.0;;
73421;SDS011;61637;47.760;-122.022;2024-01-30T01:46:01;5.0;;;1.2;;
73421;SDS011;61637;47.760;-122.022;2024-01-30T01:48:01;4.7;;;1.0;;
73421;SDS011;61637;47.760;-122.022;2024-01-30T01:50:01;4.2;;;0.9;;
73421;SDS011;61637;47.760;-122.022;2024-01-30T01:52:01;2.6;;;1.0;;
73421;SDS011;61637;47.760;-122.022;2024-01-30T01:54:03;4.7;;;1.0;;
73421;SDS011;61637;47.760;-122.022;2024-01-30T01:56:01;3.6;;;1.0;;
73421;SDS011;61637;47.760;-122.022;2024-01-30T01:58:02;5.2;;;0.9;;
73421;SDS011;61637;47.760;-122.022;2024-01-30T02:00:02;5.4;;;1.0;;
73421;SDS011;61637;47.760;-122.022;2024-01-30T02:02:02;2.9;;;0.9;;
73421;SDS011;61637;47.760;-122.022;2024-01-30T02:04:01;3.7;;;1.0;;
73421;SDS011;61637;47.760;-122.022;2024-01-30T02:06:01;4.4;;;1.0;;
73421;SDS011;61637;47.760;-122.022;2024-01-30T02:08:01;3.3;;;1.0;;
73421;SDS011;61637;47.760;-122.022;2024-01-30T02:10:01;2.8;;;1.0;;
73421;SDS011;61637;47.760;-122.022;2024-01-30T02:12:01;3.6;;;1.0;;
73421;SDS011;61637;47.760;-122.022;2024-01-30T02:14:03;3.9;;;1.0;;
73421;SDS011;61637;47.760;-122.022;2024-01-30T02:16:01;2.5;;;0.9;;
73421;SDS011;61637;47.760;-122.022;2024-01-30T02:18:01;3.1;;;1.0;;
73421;SDS011;61637;47.760;-122.022;2024-01-30T02:20:02;2.5;;;0.9;;
73421;SDS011;61637;47.760;-122.022;2024-01-30T02:22:01;3.3;;;0.9;;
73421;SDS011;61637;47.760;-122.022;2024-01-30T02:24:02;3.5;;;1.0;;
73421;SDS011;61637;47.760;-122.022;2024-01-30T02:26:01;3.5;;;0.9;;
73421;SDS011;61637;47.760;-122.022;2024-01-30T02:28:01;4.5;;;0.9;;
73421;SDS011;61637;47.760;-122.022;2024-01-30T02:30:01;3.0;;;0.9;;
73421;SDS011;61637;47.760;-122.022;2024-01-30T02:32:01;3.4;;;1.0;;
73421;SDS011;61637;47.760;-122.022;2024-01-30T02:34:01;3.3;;;0.9;;
73421;SDS011;61637;47.760;-122.022;2024-01-30T02:36:01;3.6;;;1.0;;
73421;SDS011;61637;47.760;-122.022;2024-01-30T02:38:01;4.7;;;1.0;;
73421;SDS011;61637;47.760;-122.022;2024-01-30T02:40:01;4.7;;;1.0;;
73421;SDS011;61637;47.760;-122.022;2024-01-30T02:42:01;2.6;;;0.9;;
73421;SDS011;61637;47.760;-122.022;2024-01-30T02:44:01;2.0;;;0.8;;
73421;SDS011;61637;47.760;-122.022;2024-01-30T02:46:01;3.5;;;1.0;;
73421;SDS011;61637;47.760;-122.022;2024-01-30T02:48:01;3.4;;;1.1;;
73421;SDS011;61637;47.760;-122.022;2024-01-30T02:50:01;2.9;;;0.9;;
73421;SDS011;61637;47.760;-122.022;2024-01-30T02:52:01;3.3;;;0.9;;
73421;SDS011;61637;47.760;-122.022;2024-01-30T02:54:01;3.6;;;1.0;;
73421;SDS011;61637;47.760;-122.022;2024-01-30T02:56:02;5.5;;;1.1;;
73421;SDS011;61637;47.760;-122.022;2024-01-30T02:58:01;3.2;;;0.8;;
73421;SDS011;61637;47.760;-122.022;2024-01-30T03:00:01;2.9;;;0.9;;
73421;SDS011;61637;47.760;-122.022;2024-01-30T03:02:01;2.6;;;0.8;;
73421;SDS011;61637;47.760;-122.022;2024-01-30T03:04:01;2.6;;;0.8;;
73421;SDS011;61637;47.760;-122.022;2024-01-30T03:06:02;4.0;;;0.9;;
73421;SDS011;61637;47.760;-122.022;2024-01-30T03:08:01;4.5;;;0.9;;
73421;SDS011;61637;47.760;-122.022;2024-01-30T03:10:01;3.2;;;1.0;;
73421;SDS011;61637;47.760;-122.022;2024-01-30T03:12:01;2.2;;;1.0;;
73421;SDS011;61637;47.760;-122.022;2024-01-30T03:14:01;3.5;;;1.0;;
73421;SDS011;61637;47.760;-122.022;2024-01-30T03:16:01;5.0;;;1.0;;
73421;SDS011;61637;47.760;-122.022;2024-01-30T03:18:02;3.0;;;1.1;;
73421;SDS011;61637;47.760;-122.022;2024-01-30T03:20:01;2.8;;;1.0;;
73421;SDS011;61637;47.760;-122.022;2024-01-30T03:22:01;6.3;;;1.1;;
73421;SDS011;61637;47.760;-122.022;2024-01-30T03:24:01;3.2;;;1.0;;
73421;SDS011;61637;47.760;-122.022;2024-01-30T03:26:01;2.3;;;1.0;;
73421;SDS011;61637;47.760;-122.022;2024-01-30T03:28:01;3.8;;;1.1;;
73421;SDS011;61637;47.760;-122.022;2024-01-30T03:30:01;4.0;;;1.0;;
73421;SDS011;61637;47.760;-122.022;2024-01-30T03:32:01;3.1;;;1.0;;
73421;SDS011;61637;47.760;-122.022;2024-01-30T03:34:01;3.4;;;1.0;;
73421;SDS011;61637;47.760;-122.022;2024-01-30T03:36:04;5.1;;;1.0;;
73421;SDS011;61637;47.760;-122.022;2024-01-30T03:38:01;3.0;;;1.0;;
73421;SDS011;61637;47.760;-122.022;2024-01-30T03:40:02;3.7;;;1.0;;
73421;SDS011;61637;47.760;-122.022;2024-01-30T03:42:01;2.8;;;1.0;;
73421;SDS011;61637;47.760;-122.022;2024-01-30T03:44:01;4.7;;;1.1;;
73421;SDS011;61637;47.760;-122.022;2024-01-30T03:46:02;3.9;;;1.1;;
73421;SDS011;61637;47.760;-122.022;2024-01-30T03:48:01;4.4;;;0.9;;
73421;SDS011;61637;47.760;-122.022;2024-01-30T03:50:01;2.9;;;1.0;;
73421;SDS011;61637;47.760;-122.022;2024-01-30T03:52:01;2.3;;;0.9;;
73421;SDS011;61637;47.760;-122.022;2024-01-30T03:54:01;2.9;;;0.9;;
73421;SDS011;61637;47.760;-122.022;2024-01-30T03:56:01;4.0;;;1.0;;
73421;SDS011;61637;47.760;-122.022;2024-01-30T03:58:01;4.3;;;1.2;;
73421;SDS011;61637;47.760;-122.022;2024-01-30T04:00:01;4.0;;;1.0;;
73421;SDS011;61637;47.760;-122.022;2024-01-30T04:02:01;4.1;;;1.0;;
73421;SDS011;61637;47.760;-122.022;2024-01-30T04:04:01;3.1;;;1.0;;
73421;SDS011;61637;47.760;-122.022;2024-01-30T04:06:01;4.2;;;1.0;;
73421;SDS011;61637;47.760;-122.022;2024-01-30T04:08:01;3.6;;;0.9;;
73421;SDS011;61637;47.760;-122.022;2024-01-30T04:10:01;5.9;;;1.1;;
73421;SDS011;61637;47.760;-122.022;2024-01-30T04:12:01;6.0;;;1.2;;
73421;SDS011;61637;47.760;-122.022;2024-01-30T04:14:01;3.1;;;1.0;;
73421;SDS011;61637;47.760;-122.022;2024-01-30T04:16:02;2.9;;;1.0;;
73421;SDS011;61637;47.760;-122.022;2024-01-30T04:18:01;4.3;;;1.0;;
73421;SDS011;61637;47.760;-122.022;2024-01-30T04:20:01;3.4;;;1.0;;
73421;SDS011;61637;47.760;-122.022;2024-01-30T04:22:01;2.6;;;0.9;;
73421;SDS011;61637;47.760;-122.022;2024-01-30T04:24:01;4.8;;;0.9;;
73421;SDS011;61637;47.760;-122.022;2024-01-30T04:26:01;3.3;;;0.9;;
73421;SDS011;61637;47.760;-122.022;2024-01-30T04:28:01;3.0;;;1.0;;
73421;SDS011;61637;47.760;-122.022;2024-01-30T04:30:01;4.6;;;1.2;;
73421;SDS011;61637;47.760;-122.022;2024-01-30T04:32:01;3.7;;;1.2;;
73421;SDS011;61637;47.760;-122.022;2024-01-30T04:34:01;4.6;;;1.5;;
73421;SDS011;61637;47.760;-122.022;2024-01-30T04:36:02;6.0;;;1.6;;
73421;SDS011;61637;47.760;-122.022;2024-01-30T04:38:01;5.4;;;1.7;;
73421;SDS011;61637;47.760;-122.022;2024-01-30T04:40:01;6.4;;;2.0;;
73421;SDS011;61637;47.760;-122.022;2024-01-30T04:42:01;7.9;;;2.0;;
73421;SDS011;61637;47.760;-122.022;2024-01-30T04:44:01;6.6;;;1.7;;
73421;SDS011;61637;47.760;-122.022;2024-01-30T04:46:01;5.1;;;1.9;;
73421;SDS011;61637;47.760;-122.022;2024-01-30T04:48:01;5.6;;;1.8;;
73421;SDS011;61637;47.760;-122.022;2024-01-30T04:50:02;5.3;;;1.8;;
73421;SDS011;61637;47.760;-122.022;2024-01-30T04:52:01;4.7;;;1.8;;
73421;SDS011;61637;47.760;-122.022;2024-01-30T04:54:01;6.4;;;1.9;;
73421;SDS011;61637;47.760;-122.022;2024-01-30T04:56:01;5.6;;;2.0;;
73421;SDS011;61637;47.760;-122.022;2024-01-30T04:58:01;6.3;;;1.8;;
73421;SDS011;61637;47.760;-122.022;2024-01-30T05:00:01;5.4;;;1.8;;
73421;SDS011;61637;47.760;-122.022;2024-01-30T05:02:01;5.6;;;1.7;;
73421;SDS011;61637;47.760;-122.022;2024-01-30T05:04:01;4.9;;;1.8;;
73421;SDS011;61637;47.760;-122.022;2024-01-30T05:06:01;5.6;;;1.7;;
73421;SDS011;61637;47.760;-122.022;2024-01-30T05:08:01;5.5;;;1.7;;
73421;SDS011;61637;47.760;-122.022;2024-01-30T05:10:01;5.3;;;1.9;;
73421;SDS011;61637;47.760;-122.022;2024-01-30T05:12:02;5.5;;;1.8;;
73421;SDS011;61637;47.760;-122.022;2024-01-30T05:14:01;6.2;;;1.8;;
73421;SDS011;61637;47.760;-122.022;2024-01-30T05:16:02;5.2;;;1.8;;
73421;SDS011;61637;47.760;-122.022;2024-01-30T05:18:01;6.4;;;1.9;;
73421;SDS011;61637;47.760;-122.022;2024-01-30T05:20:01;5.7;;;1.9;;
73421;SDS011;61637;47.760;-122.022;2024-01-30T05:22:01;4.7;;;1.8;;
73421;SDS011;61637;47.760;-122.022;2024-01-30T05:24:01;6.4;;;2.0;;
73421;SDS011;61637;47.760;-122.022;2024-01-30T05:26:01;4.8;;;1.7;;
73421;SDS011;61637;47.760;-122.022;2024-01-30T05:28:01;6.3;;;1.8;;
73421;SDS011;61637;47.760;-122.022;2024-01-30T05:30:01;7.6;;;1.8;;
73421;SDS011;61637;47.760;-122.022;2024-01-30T05:32:01;4.5;;;1.7;;
73421;SDS011;61637;47.760;-122.022;2024-01-30T05:34:01;6.8;;;1.7;;
73421;SDS011;61637;47.760;-122.022;2024-01-30T05:36:01;7.3;;;1.7;;
73421;SDS011;61637;47.760;-122.022;2024-01-30T05:38:01;5.5;;;1.9;;
73421;SDS011;61637;47.760;-122.022;2024-01-30T05:40:01;4.9;;;1.8;;
73421;SDS011;61637;47.760;-122.022;2024-01-30T05:42:01;5.3;;;1.8;;
73421;SDS011;61637;47.760;-122.022;2024-01-30T05:44:01;7.1;;;1.8;;
73421;SDS011;61637;47.760;-122.022;2024-01-30T05:46:01;4.8;;;1.6;;
73421;SDS011;61637;47.760;-122.022;2024-01-30T05:48:01;5.0;;;1.7;;
73421;SDS011;61637;47.760;-122.022;2024-01-30T05:50:01;4.9;;;1.6;;
73421;SDS011;61637;47.760;-122.022;2024-01-30T05:52:02;5.0;;;1.7;;
73421;SDS011;61637;47.760;-122.022;2024-01-30T05:54:01;5.3;;;1.7;;
73421;SDS011;61637;47.760;-122.022;2024-01-30T05:56:02;6.5;;;1.8;;
73421;SDS011;61637;47.760;-122.022;2024-01-30T05:58:01;5.0;;;1.6;;
73421;SDS011;61637;47.760;-122.022;2024-01-30T06:00:01;7.9;;;1.8;;
73421;SDS011;61637;47.760;-122.022;2024-01-30T06:02:01;6.2;;;1.6;;
73421;SDS011;61637;47.760;-122.022;2024-01-30T06:04:01;6.8;;;1.8;;
73421;SDS011;61637;47.760;-122.022;2024-01-30T06:06:01;5.2;;;1.6;;
73421;SDS011;61637;47.760;-122.022;2024-01-30T06:08:01;5.7;;;1.6;;
73421;SDS011;61637;47.760;-122.022;2024-01-30T06:10:01;5.9;;;1.6;;
73421;SDS011;61637;47.760;-122.022;2024-01-30T06:12:01;6.1;;;1.7;;
73421;SDS011;61637;47.760;-122.022;2024-01-30T06:14:01;6.2;;;1.6;;
73421;SDS011;61637;47.760;-122.022;2024-01-30T06:16:01;4.0;;;1.5;;
73421;SDS011;61637;47.760;-122.022;2024-01-30T06:18:01;6.3;;;1.7;;
73421;SDS011;61637;47.760;-122.022;2024-01-30T06:20:01;4.7;;;1.6;;
73421;SDS011;61637;47.760;-122.022;2024-01-30T06:22:02;6.2;;;1.6;;
73421;SDS011;61637;47.760;-122.022;2024-01-30T06:24:01;8.0;;;1.6;;
73421;SDS011;61637;47.760;-122.022;2024-01-30T06:26:01;5.5;;;1.5;;
73421;SDS011;61637;47.760;-122.022;2024-01-30T06:28:01;3.4;;;1.2;;
73421;SDS011;61637;47.760;-122.022;2024-01-30T06:30:01;3.8;;;1.3;;
73421;SDS011;61637;47.760;-122.022;2024-01-30T06:32:01;4.1;;;1.4;;
73421;SDS011;61637;47.760;-122.022;2024-01-30T06:34:01;5.2;;;1.4;;
73421;SDS011;61637;47.760;-122.022;2024-01-30T06:36:01;3.5;;;1.2;;
73421;SDS011;61637;47.760;-122.022;2024-01-30T06:38:01;4.1;;;1.2;;
73421;SDS011;61637;47.760;-122.022;2024-01-30T06:40:01;4.7;;;1.4;;
73421;SDS011;61637;47.760;-122.022;2024-01-30T06:42:01;5.5;;;1.4;;
73421;SDS011;61637;47.760;-122.022;2024-01-30T06:44:02;3.9;;;1.3;;
73421;SDS011;61637;47.760;-122.022;2024-01-30T06:46:01;5.3;;;1.3;;
73421;SDS011;61637;47.760;-122.022;2024-01-30T06:48:01;4.0;;;1.1;;
73421;SDS011;61637;47.760;-122.022;2024-01-30T06:50:01;5.1;;;1.2;;
73421;SDS011;61637;47.760;-122.022;2024-01-30T06:52:01;3.7;;;1.2;;
73421;SDS011;61637;47.760;-122.022;2024-01-30T06:54:01;3.5;;;1.1;;
73421;SDS011;61637;47.760;-122.022;2024-01-30T06:56:01;2.9;;;1.1;;
73421;SDS011;61637;47.760;-122.022;2024-01-30T06:58:01;3.3;;;1.2;;
73421;SDS011;61637;47.760;-122.022;2024-01-30T07:00:01;4.1;;;1.0;;
73421;SDS011;61637;47.760;-122.022;2024-01-30T07:02:01;4.7;;;1.1;;
73421;SDS011;61637;47.760;-122.022;2024-01-30T07:04:01;7.3;;;1.2;;
73421;SDS011;61637;47.760;-122.022;2024-01-30T07:06:01;4.7;;;1.1;;
73421;SDS011;61637;47.760;-122.022;2024-01-30T07:08:01;4.4;;;1.0;;
73421;SDS011;61637;47.760;-122.022;2024-01-30T07:10:01;3.5;;;1.0;;
73421;SDS011;61637;47.760;-122.022;2024-01-30T07:12:01;3.2;;;1.0;;
73421;SDS011;61637;47.760;-122.022;2024-01-30T07:14:01;3.2;;;1.0;;
73421;SDS011;61637;47.760;-122.022;2024-01-30T07:16:01;2.9;;;1.1;;
73421;SDS011;61637;47.760;-122.022;2024-01-30T07:18:05;4.3;;;1.0;;
73421;SDS011;61637;47.760;-122.022;2024-01-30T07:20:01;4.3;;;1.0;;
73421;SDS011;61637;47.760;-122.022;2024-01-30T07:22:01;3.5;;;1.0;;
73421;SDS011;61637;47.760;-122.022;2024-01-30T07:24:01;2.4;;;1.0;;
73421;SDS011;61637;47.760;-122.022;2024-01-30T07:26:02;5.4;;;1.1;;
73421;SDS011;61637;47.760;-122.022;2024-01-30T07:28:01;6.2;;;1.1;;
73421;SDS011;61637;47.760;-122.022;2024-01-30T07:30:01;4.4;;;1.1;;
73421;SDS011;61637;47.760;-122.022;2024-01-30T07:32:01;4.4;;;1.0;;
73421;SDS011;61637;47.760;-122.022;2024-01-30T07:34:01;3.7;;;1.2;;
73421;SDS011;61637;47.760;-122.022;2024-01-30T07:36:01;4.7;;;1.2;;
73421;SDS011;61637;47.760;-122.022;2024-01-30T07:38:01;3.3;;;0.9;;
73421;SDS011;61637;47.760;-122.022;2024-01-30T07:40:01;4.2;;;1.3;;
73421;SDS011;61637;47.760;-122.022;2024-01-30T07:42:01;3.6;;;1.1;;
73421;SDS011;61637;47.760;-122.022;2024-01-30T07:44:02;4.6;;;1.2;;
73421;SDS011;61637;47.760;-122.022;2024-01-30T07:46:01;4.8;;;1.1;;
73421;SDS011;61637;47.760;-122.022;2024-01-30T07:48:01;2.6;;;1.0;;
73421;SDS011;61637;47.760;-122.022;2024-01-30T07:50:01;5.4;;;1.1;;
73421;SDS011;61637;47.760;-122.022;2024-01-30T07:52:01;3.6;;;1.1;;
73421;SDS011;61637;47.760;-122.022;2024-01-30T07:54:01;4.0;;;1.1;;
73421;SDS011;61637;47.760;-122.022;2024-01-30T07:56:01;5.4;;;1.1;;
73421;SDS011;61637;47.760;-122.022;2024-01-30T07:58:01;4.5;;;1.0;;
73421;SDS011;61637;47.760;-122.022;2024-01-30T08:00:01;4.1;;;1.0;;
73421;SDS011;61637;47.760;-122.022;2024-01-30T08:02:01;5.7;;;1.2;;
73421;SDS011;61637;47.760;-122.022;2024-01-30T08:04:01;3.7;;;1.0;;
73421;SDS011;61637;47.760;-122.022;2024-01-30T08:06:01;3.6;;;1.1;;
73421;SDS011;61637;47.760;-122.022;2024-01-30T08:08:01;3.9;;;1.0;;
73421;SDS011;61637;47.760;-122.022;2024-01-30T08:10:01;4.9;;;1.2;;
73421;SDS011;61637;47.760;-122.022;2024-01-30T08:12:01;3.7;;;1.0;;
73421;SDS011;61637;47.760;-122.022;2024-01-30T08:14:01;4.0;;;1.1;;
73421;SDS011;61637;47.760;-122.022;2024-01-30T08:16:01;5.3;;;1.2;;
73421;SDS011;61637;47.760;-122.022;2024-01-30T08:18:01;3.7;;;1.1;;
73421;SDS011;61637;47.760;-122.022;2024-01-30T08:20:01;3.0;;;1.0;;
73421;SDS011;61637;47.760;-122.022;2024-01-30T08:22:01;3.2;;;1.1;;
73421;SDS011;61637;47.760;-122.022;2024-01-30T08:24:02;2.9;;;1.1;;
73421;SDS011;61637;47.760;-122.022;2024-01-30T08:26:01;3.2;;;1.1;;
73421;SDS011;61637;47.760;-122.022;2024-01-30T08:28:01;2.9;;;1.1;;
73421;SDS011;61637;47.760;-122.022;2024-01-30T08:30:01;3.5;;;1.1;;
73421;SDS011;61637;47.760;-122.022;2024-01-30T08:32:02;4.4;;;1.1;;
73421;SDS011;61637;47.760;-122.022;2024-01-30T08:34:01;3.6;;;1.1;;
73421;SDS011;61637;47.760;-122.022;2024-01-30T08:36:01;3.6;;;1.0;;
73421;SDS011;61637;47.760;-122.022;2024-01-30T08:38:01;3.0;;;1.1;;
73421;SDS011;61637;47.760;-122.022;2024-01-30T08:40:01;3.4;;;1.1;;
73421;SDS011;61637;47.760;-122.022;2024-01-30T08:42:03;2.9;;;1.0;;
73421;SDS011;61637;47.760;-122.022;2024-01-30T08:44:01;4.3;;;1.1;;
73421;SDS011;61637;47.760;-122.022;2024-01-30T08:46:01;4.3;;;1.1;;
73421;SDS011;61637;47.760;-122.022;2024-01-30T08:48:01;5.2;;;1.2;;
73421;SDS011;61637;47.760;-122.022;2024-01-30T08:50:01;5.2;;;1.2;;
73421;SDS011;61637;47.760;-122.022;2024-01-30T08:52:01;3.8;;;1.0;;
73421;SDS011;61637;47.760;-122.022;2024-01-30T08:54:03;3.1;;;1.1;;
73421;SDS011;61637;47.760;-122.022;2024-01-30T08:56:01;6.2;;;1.9;;
73421;SDS011;61637;47.760;-122.022;2024-01-30T08:58:01;6.1;;;2.4;;
73421;SDS011;61637;47.760;-122.022;2024-01-30T09:00:01;5.8;;;2.4;;
73421;SDS011;61637;47.760;-122.022;2024-01-30T09:02:01;10.2;;;4.5;;
73421;SDS011;61637;47.760;-122.022;2024-01-30T09:04:01;12.7;;;5.3;;
73421;SDS011;61637;47.760;-122.022;2024-01-30T09:06:02;12.2;;;5.9;;
73421;SDS011;61637;47.760;-122.022;2024-01-30T09:08:01;20.9;;;10.2;;
73421;SDS011;61637;47.760;-122.022;2024-01-30T09:10:01;32.6;;;15.6;;
73421;SDS011;61637;47.760;-122.022;2024-01-30T09:12:01;20.1;;;9.9;;
73421;SDS011;61637;47.760;-122.022;2024-01-30T09:14:01;20.5;;;8.6;;
73421;SDS011;61637;47.760;-122.022;2024-01-30T09:16:01;11.8;;;5.4;;
73421;SDS011;61637;47.760;-122.022;2024-01-30T09:18:01;8.2;;;3.3;;
73421;SDS011;61637;47.760;-122.022;2024-01-30T09:20:01;12.0;;;4.6;;
73421;SDS011;61637;47.760;-122.022;2024-01-30T09:22:01;8.5;;;2.6;;
73421;SDS011;61637;47.760;-122.022;2024-01-30T09:24:03;15.2;;;7.1;;
73421;SDS011;61637;47.760;-122.022;2024-01-30T09:26:01;9.4;;;3.8;;
73421;SDS011;61637;47.760;-122.022;2024-01-30T09:28:01;10.0;;;4.2;;
73421;SDS011;61637;47.760;-122.022;2024-01-30T09:30:01;13.5;;;5.3;;
73421;SDS011;61637;47.760;-122.022;2024-01-30T09:32:01;8.4;;;3.2;;
73421;SDS011;61637;47.760;-122.022;2024-01-30T09:34:01;10.6;;;4.4;;
73421;SDS011;61637;47.760;-122.022;2024-01-30T09:36:02;10.1;;;3.8;;
73421;SDS011;61637;47.760;-122.022;2024-01-30T09:38:01;8.8;;;3.1;;
73421;SDS011;61637;47.760;-122.022;2024-01-30T09:40:01;9.1;;;3.1;;
73421;SDS011;61637;47.760;-122.022;2024-01-30T09:42:08;7.7;;;3.1;;
73421;SDS011;61637;47.760;-122.022;2024-01-30T09:44:02;9.2;;;3.3;;
73421;SDS011;61637;47.760;-122.022;2024-01-30T09:46:03;8.0;;;3.5;;
73421;SDS011;61637;47.760;-122.022;2024-01-30T09:48:01;10.2;;;3.5;;
73421;SDS011;61637;47.760;-122.022;2024-01-30T09:50:02;8.3;;;3.3;;
73421;SDS011;61637;47.760;-122.022;2024-01-30T09:52:01;10.5;;;4.7;;
73421;SDS011;61637;47.760;-122.022;2024-01-30T09:54:03;10.9;;;5.3;;
73421;SDS011;61637;47.760;-122.022;2024-01-30T09:56:02;9.0;;;5.0;;
73421;SDS011;61637;47.760;-122.022;2024-01-30T09:58:01;7.9;;;4.0;;
73421;SDS011;61637;47.760;-122.022;2024-01-30T10:00:02;7.7;;;3.8;;
73421;SDS011;61637;47.760;-122.022;2024-01-30T10:02:01;6.8;;;3.0;;
73421;SDS011;61637;47.760;-122.022;2024-01-30T10:04:01;7.7;;;3.3;;
73421;SDS011;61637;47.760;-122.022;2024-01-30T10:06:02;6.2;;;2.6;;
73421;SDS011;61637;47.760;-122.022;2024-01-30T10:08:01;7.6;;;2.5;;
73421;SDS011;61637;47.760;-122.022;2024-01-30T10:10:01;6.9;;;2.8;;
73421;SDS011;61637;47.760;-122.022;2024-01-30T10:12:01;5.2;;;1.9;;
73421;SDS011;61637;47.760;-122.022;2024-01-30T10:14:01;4.9;;;1.7;;
73421;SDS011;61637;47.760;-122.022;2024-01-30T10:16:01;4.8;;;1.6;;
73421;SDS011;61637;47.760;-122.022;2024-01-30T10:18:01;7.5;;;1.7;;
73421;SDS011;61637;47.760;-122.022;2024-01-30T10:20:04;5.2;;;1.6;;
73421;SDS011;61637;47.760;-122.022;2024-01-30T10:22:01;4.8;;;1.4;;
73421;SDS011;61637;47.760;-122.022;2024-01-30T10:24:01;3.7;;;1.4;;
73421;SDS011;61637;47.760;-122.022;2024-01-30T10:26:03;9.4;;;1.7;;
73421;SDS011;61637;47.760;-122.022;2024-01-30T10:28:01;4.7;;;1.4;;
73421;SDS011;61637;47.760;-122.022;2024-01-30T10:30:01;5.7;;;1.3;;
73421;SDS011;61637;47.760;-122.022;2024-01-30T10:32:03;5.7;;;1.5;;
73421;SDS011;61637;47.760;-122.022;2024-01-30T10:34:01;4.4;;;1.2;;
73421;SDS011;61637;47.760;-122.022;2024-01-30T10:36:03;3.3;;;1.3;;
73421;SDS011;61637;47.760;-122.022;2024-01-30T10:38:01;7.4;;;1.5;;
73421;SDS011;61637;47.760;-122.022;2024-01-30T10:40:03;6.6;;;1.7;;
73421;SDS011;61637;47.760;-122.022;2024-01-30T10:42:05;6.0;;;2.5;;
73421;SDS011;61637;47.760;-122.022;2024-01-30T10:44:05;5.9;;;1.8;;
73421;SDS011;61637;47.760;-122.022;2024-01-30T10:46:08;5.7;;;2.0;;
73421;SDS011;61637;47.760;-122.022;2024-01-30T10:48:01;6.1;;;2.1;;
73421;SDS011;61637;47.760;-122.022;2024-01-30T10:50:02;5.0;;;1.4;;
73421;SDS011;61637;47.760;-122.022;2024-01-30T10:52:01;6.2;;;1.6;;
73421;SDS011;61637;47.760;-122.022;2024-01-30T10:54:01;5.6;;;1.5;;
73421;SDS011;61637;47.760;-122.022;2024-01-30T10:56:01;5.9;;;1.4;;
73421;SDS011;61637;47.760;-122.022;2024-01-30T10:58:01;5.9;;;1.6;;
73421;SDS011;61637;47.760;-122.022;2024-01-30T11:00:02;5.0;;;1.6;;
73421;SDS011;61637;47.760;-122.022;2024-01-30T11:02:01;4.0;;;1.4;;
73421;SDS011;61637;47.760;-122.022;2024-01-30T11:04:01;6.0;;;1.6;;
73421;SDS011;61637;47.760;-122.022;2024-01-30T11:06:01;6.1;;;1.4;;
73421;SDS011;61637;47.760;-122.022;2024-01-30T11:08:11;4.8;;;1.5;;
73421;SDS011;61637;47.760;-122.022;2024-01-30T11:10:03;5.6;;;1.6;;
73421;SDS011;61637;47.760;-122.022;2024-01-30T11:12:02;4.5;;;1.3;;
73421;SDS011;61637;47.760;-122.022;2024-01-30T11:14:02;4.0;;;1.3;;
73421;SDS011;61637;47.760;-122.022;2024-01-30T11:16:02;6.0;;;1.5;;
73421;SDS011;61637;47.760;-122.022;2024-01-30T11:18:01;4.0;;;1.3;;
73421;SDS011;61637;47.760;-122.022;2024-01-30T11:20:02;4.0;;;1.5;;
73421;SDS011;61637;47.760;-122.022;2024-01-30T11:22:01;5.1;;;1.6;;
73421;SDS011;61637;47.760;-122.022;2024-01-30T11:24:03;6.1;;;1.6;;
73421;SDS011;61637;47.760;-122.022;2024-01-30T11:26:01;4.2;;;1.5;;
73421;SDS011;61637;47.760;-122.022;2024-01-30T11:28:01;5.5;;;1.6;;
73421;SDS011;61637;47.760;-122.022;2024-01-30T11:30:02;5.7;;;1.5;;
73421;SDS011;61637;47.760;-122.022;2024-01-30T11:32:01;5.4;;;1.5;;
73421;SDS011;61637;47.760;-122.022;2024-01-30T11:34:01;4.6;;;1.5;;
73421;SDS011;61637;47.760;-122.022;2024-01-30T11:36:01;4.9;;;1.6;;
73421;SDS011;61637;47.760;-122.022;2024-01-30T11:38:03;3.8;;;1.5;;
73421;SDS011;61637;47.760;-122.022;2024-01-30T11:40:02;5.1;;;1.3;;
73421;SDS011;61637;47.760;-122.022;2024-01-30T11:42:01;5.1;;;1.3;;
73421;SDS011;61637;47.760;-122.022;2024-01-30T11:44:03;4.4;;;1.2;;
73421;SDS011;61637;47.760;-122.022;2024-01-30T11:46:01;4.4;;;1.2;;
73421;SDS011;61637;47.760;-122.022;2024-01-30T11:48:02;4.7;;;1.3;;
73421;SDS011;61637;47.760;-122.022;2024-01-30T11:50:01;4.1;;;1.4;;